<?xml version="1.0" encoding="UTF-8" standalone="no" ?>
<gpx xmlns="http://www.topografix.com/GPX/1/1" xmlns:xsi="http://www.w3.org/2001/XMLSchema-instance" xsi:schemaLocation="http://www.topografix.com/GPX/1/1 http://www.topografix.com/GPX/1/1/gpx.xsd" version="1.1" creator="VisuGPX - https://www.visugpx.com">
  <metadata>
    <name>Raccordo sentiero 4A</name>
    <desc><![CDATA[AlpineQuest Track 15/04/2018 08:43:36]]></desc>
  </metadata>
  <trk>
    <name><![CDATA[sentiero 4 A]]></name>
    <trkseg>
      <trkpt lat="43.88433" lon="7.73612">
        <ele>1059.627</ele>
        <time>2018-04-15T06:43:36Z</time>
      </trkpt>
      <trkpt lat="43.88422" lon="7.73593">
        <ele>1036.121</ele>
        <time>2018-04-15T06:43:37Z</time>
      </trkpt>
      <trkpt lat="43.88426" lon="7.73592">
        <ele>1050.282</ele>
        <time>2018-04-15T06:43:58Z</time>
      </trkpt>
      <trkpt lat="43.88427" lon="7.73582">
        <ele>1045.965</ele>
        <time>2018-04-15T06:44:04Z</time>
      </trkpt>
      <trkpt lat="43.88427" lon="7.73568">
        <ele>1042.878</ele>
        <time>2018-04-15T06:44:22Z</time>
      </trkpt>
      <trkpt lat="43.88426" lon="7.73564">
        <ele>1042.948</ele>
        <time>2018-04-15T06:44:26Z</time>
      </trkpt>
      <trkpt lat="43.88425" lon="7.7355">
        <ele>1042.964</ele>
        <time>2018-04-15T06:44:32Z</time>
      </trkpt>
      <trkpt lat="43.88426" lon="7.73544">
        <ele>1042.679</ele>
        <time>2018-04-15T06:44:36Z</time>
      </trkpt>
      <trkpt lat="43.88424" lon="7.7354">
        <ele>1042.312</ele>
        <time>2018-04-15T06:44:39Z</time>
      </trkpt>
      <trkpt lat="43.88424" lon="7.73536">
        <ele>1042.008</ele>
        <time>2018-04-15T06:44:41Z</time>
      </trkpt>
      <trkpt lat="43.88426" lon="7.73532">
        <ele>1042.192</ele>
        <time>2018-04-15T06:44:43Z</time>
      </trkpt>
      <trkpt lat="43.88426" lon="7.73525">
        <ele>1042.712</ele>
        <time>2018-04-15T06:44:45Z</time>
      </trkpt>
      <trkpt lat="43.88425" lon="7.73522">
        <ele>1043.209</ele>
        <time>2018-04-15T06:44:47Z</time>
      </trkpt>
      <trkpt lat="43.88425" lon="7.73518">
        <ele>1044.182</ele>
        <time>2018-04-15T06:44:50Z</time>
      </trkpt>
      <trkpt lat="43.88425" lon="7.73514">
        <ele>1044.925</ele>
        <time>2018-04-15T06:44:52Z</time>
      </trkpt>
      <trkpt lat="43.88424" lon="7.7351">
        <ele>1046.669</ele>
        <time>2018-04-15T06:44:57Z</time>
      </trkpt>
      <trkpt lat="43.88423" lon="7.73506">
        <ele>1047.21</ele>
        <time>2018-04-15T06:44:59Z</time>
      </trkpt>
      <trkpt lat="43.88422" lon="7.73501">
        <ele>1047.856</ele>
        <time>2018-04-15T06:45:02Z</time>
      </trkpt>
      <trkpt lat="43.8842" lon="7.73496">
        <ele>1048.587</ele>
        <time>2018-04-15T06:45:06Z</time>
      </trkpt>
      <trkpt lat="43.88418" lon="7.73491">
        <ele>1048.741</ele>
        <time>2018-04-15T06:45:08Z</time>
      </trkpt>
      <trkpt lat="43.88418" lon="7.73481">
        <ele>1048.975</ele>
        <time>2018-04-15T06:45:11Z</time>
      </trkpt>
      <trkpt lat="43.88423" lon="7.73477">
        <ele>1049.376</ele>
        <time>2018-04-15T06:45:17Z</time>
      </trkpt>
      <trkpt lat="43.88422" lon="7.73466">
        <ele>1049.796</ele>
        <time>2018-04-15T06:45:19Z</time>
      </trkpt>
      <trkpt lat="43.88421" lon="7.73461">
        <ele>1050.084</ele>
        <time>2018-04-15T06:45:21Z</time>
      </trkpt>
      <trkpt lat="43.88422" lon="7.73456">
        <ele>1051.481</ele>
        <time>2018-04-15T06:45:26Z</time>
      </trkpt>
      <trkpt lat="43.88422" lon="7.73452">
        <ele>1052.024</ele>
        <time>2018-04-15T06:45:30Z</time>
      </trkpt>
      <trkpt lat="43.88419" lon="7.73446">
        <ele>1052.227</ele>
        <time>2018-04-15T06:45:32Z</time>
      </trkpt>
      <trkpt lat="43.88417" lon="7.73437">
        <ele>1052.24</ele>
        <time>2018-04-15T06:45:35Z</time>
      </trkpt>
      <trkpt lat="43.88414" lon="7.73433">
        <ele>1052.363</ele>
        <time>2018-04-15T06:45:37Z</time>
      </trkpt>
      <trkpt lat="43.88412" lon="7.73429">
        <ele>1052.695</ele>
        <time>2018-04-15T06:45:39Z</time>
      </trkpt>
      <trkpt lat="43.88411" lon="7.73424">
        <ele>1052.711</ele>
        <time>2018-04-15T06:45:41Z</time>
      </trkpt>
      <trkpt lat="43.88412" lon="7.73421">
        <ele>1052.855</ele>
        <time>2018-04-15T06:45:42Z</time>
      </trkpt>
      <trkpt lat="43.8841" lon="7.73413">
        <ele>1053.246</ele>
        <time>2018-04-15T06:45:46Z</time>
      </trkpt>
      <trkpt lat="43.88408" lon="7.73406">
        <ele>1053.491</ele>
        <time>2018-04-15T06:45:50Z</time>
      </trkpt>
      <trkpt lat="43.88412" lon="7.73398">
        <ele>1053.785</ele>
        <time>2018-04-15T06:45:53Z</time>
      </trkpt>
      <trkpt lat="43.88413" lon="7.73394">
        <ele>1054.088</ele>
        <time>2018-04-15T06:45:55Z</time>
      </trkpt>
      <trkpt lat="43.88413" lon="7.73389">
        <ele>1054.462</ele>
        <time>2018-04-15T06:45:58Z</time>
      </trkpt>
      <trkpt lat="43.88414" lon="7.73384">
        <ele>1054.82</ele>
        <time>2018-04-15T06:46:00Z</time>
      </trkpt>
      <trkpt lat="43.88413" lon="7.7338">
        <ele>1055.316</ele>
        <time>2018-04-15T06:46:04Z</time>
      </trkpt>
      <trkpt lat="43.88412" lon="7.73376">
        <ele>1055.468</ele>
        <time>2018-04-15T06:46:08Z</time>
      </trkpt>
      <trkpt lat="43.8841" lon="7.73372">
        <ele>1055.636</ele>
        <time>2018-04-15T06:46:12Z</time>
      </trkpt>
      <trkpt lat="43.88412" lon="7.73365">
        <ele>1055.585</ele>
        <time>2018-04-15T06:46:14Z</time>
      </trkpt>
      <trkpt lat="43.8841" lon="7.73359">
        <ele>1055.818</ele>
        <time>2018-04-15T06:46:17Z</time>
      </trkpt>
      <trkpt lat="43.88407" lon="7.73355">
        <ele>1055.944</ele>
        <time>2018-04-15T06:46:19Z</time>
      </trkpt>
      <trkpt lat="43.88406" lon="7.73351">
        <ele>1056.049</ele>
        <time>2018-04-15T06:46:21Z</time>
      </trkpt>
      <trkpt lat="43.88404" lon="7.73348">
        <ele>1056.154</ele>
        <time>2018-04-15T06:46:25Z</time>
      </trkpt>
      <trkpt lat="43.88403" lon="7.73344">
        <ele>1056.354</ele>
        <time>2018-04-15T06:46:27Z</time>
      </trkpt>
      <trkpt lat="43.88401" lon="7.73341">
        <ele>1056.583</ele>
        <time>2018-04-15T06:46:29Z</time>
      </trkpt>
      <trkpt lat="43.88399" lon="7.73336">
        <ele>1056.87</ele>
        <time>2018-04-15T06:46:31Z</time>
      </trkpt>
      <trkpt lat="43.88397" lon="7.73333">
        <ele>1057.59</ele>
        <time>2018-04-15T06:46:35Z</time>
      </trkpt>
      <trkpt lat="43.88394" lon="7.73329">
        <ele>1058.057</ele>
        <time>2018-04-15T06:46:38Z</time>
      </trkpt>
      <trkpt lat="43.88391" lon="7.73323">
        <ele>1058.398</ele>
        <time>2018-04-15T06:46:40Z</time>
      </trkpt>
      <trkpt lat="43.8839" lon="7.73318">
        <ele>1058.817</ele>
        <time>2018-04-15T06:46:42Z</time>
      </trkpt>
      <trkpt lat="43.88388" lon="7.73313">
        <ele>1059.246</ele>
        <time>2018-04-15T06:46:46Z</time>
      </trkpt>
      <trkpt lat="43.88385" lon="7.73309">
        <ele>1059.423</ele>
        <time>2018-04-15T06:46:48Z</time>
      </trkpt>
      <trkpt lat="43.88382" lon="7.73304">
        <ele>1059.747</ele>
        <time>2018-04-15T06:46:53Z</time>
      </trkpt>
      <trkpt lat="43.88381" lon="7.73299">
        <ele>1059.848</ele>
        <time>2018-04-15T06:46:55Z</time>
      </trkpt>
      <trkpt lat="43.88379" lon="7.73295">
        <ele>1059.888</ele>
        <time>2018-04-15T06:46:57Z</time>
      </trkpt>
      <trkpt lat="43.88377" lon="7.73293">
        <ele>1059.884</ele>
        <time>2018-04-15T06:47:00Z</time>
      </trkpt>
      <trkpt lat="43.88374" lon="7.73288">
        <ele>1059.972</ele>
        <time>2018-04-15T06:47:02Z</time>
      </trkpt>
      <trkpt lat="43.88371" lon="7.73282">
        <ele>1060.482</ele>
        <time>2018-04-15T06:47:06Z</time>
      </trkpt>
      <trkpt lat="43.88368" lon="7.73279">
        <ele>1061.277</ele>
        <time>2018-04-15T06:47:10Z</time>
      </trkpt>
      <trkpt lat="43.88364" lon="7.73273">
        <ele>1061.987</ele>
        <time>2018-04-15T06:47:13Z</time>
      </trkpt>
      <trkpt lat="43.88362" lon="7.73269">
        <ele>1062.474</ele>
        <time>2018-04-15T06:47:15Z</time>
      </trkpt>
      <trkpt lat="43.8836" lon="7.73266">
        <ele>1063.201</ele>
        <time>2018-04-15T06:47:19Z</time>
      </trkpt>
      <trkpt lat="43.88358" lon="7.73262">
        <ele>1063.756</ele>
        <time>2018-04-15T06:47:21Z</time>
      </trkpt>
      <trkpt lat="43.88355" lon="7.73257">
        <ele>1064.224</ele>
        <time>2018-04-15T06:47:23Z</time>
      </trkpt>
      <trkpt lat="43.88354" lon="7.73254">
        <ele>1064.749</ele>
        <time>2018-04-15T06:47:26Z</time>
      </trkpt>
      <trkpt lat="43.88352" lon="7.7325">
        <ele>1065.201</ele>
        <time>2018-04-15T06:47:29Z</time>
      </trkpt>
      <trkpt lat="43.88355" lon="7.73243">
        <ele>1065.553</ele>
        <time>2018-04-15T06:47:31Z</time>
      </trkpt>
      <trkpt lat="43.88356" lon="7.73237">
        <ele>1066.083</ele>
        <time>2018-04-15T06:47:33Z</time>
      </trkpt>
      <trkpt lat="43.88358" lon="7.73233">
        <ele>1066.877</ele>
        <time>2018-04-15T06:47:42Z</time>
      </trkpt>
      <trkpt lat="43.8836" lon="7.7323">
        <ele>1067.055</ele>
        <time>2018-04-15T06:47:47Z</time>
      </trkpt>
      <trkpt lat="43.88363" lon="7.73227">
        <ele>1067.382</ele>
        <time>2018-04-15T06:47:50Z</time>
      </trkpt>
      <trkpt lat="43.88364" lon="7.73221">
        <ele>1067.495</ele>
        <time>2018-04-15T06:47:52Z</time>
      </trkpt>
      <trkpt lat="43.88365" lon="7.73217">
        <ele>1067.783</ele>
        <time>2018-04-15T06:47:55Z</time>
      </trkpt>
      <trkpt lat="43.88372" lon="7.7321">
        <ele>1067.982</ele>
        <time>2018-04-15T06:47:58Z</time>
      </trkpt>
      <trkpt lat="43.88375" lon="7.73209">
        <ele>1067.783</ele>
        <time>2018-04-15T06:48:05Z</time>
      </trkpt>
      <trkpt lat="43.88373" lon="7.73207">
        <ele>1067.61</ele>
        <time>2018-04-15T06:48:25Z</time>
      </trkpt>
      <trkpt lat="43.88372" lon="7.73203">
        <ele>1067.62</ele>
        <time>2018-04-15T06:48:38Z</time>
      </trkpt>
      <trkpt lat="43.88374" lon="7.732">
        <ele>1066.308</ele>
        <time>2018-04-15T06:50:34Z</time>
      </trkpt>
      <trkpt lat="43.88377" lon="7.73197">
        <ele>1066.27</ele>
        <time>2018-04-15T06:50:39Z</time>
      </trkpt>
      <trkpt lat="43.8838" lon="7.73195">
        <ele>1066.401</ele>
        <time>2018-04-15T06:50:41Z</time>
      </trkpt>
      <trkpt lat="43.88383" lon="7.73193">
        <ele>1066.91</ele>
        <time>2018-04-15T06:50:44Z</time>
      </trkpt>
      <trkpt lat="43.88385" lon="7.73191">
        <ele>1067.196</ele>
        <time>2018-04-15T06:50:49Z</time>
      </trkpt>
      <trkpt lat="43.88387" lon="7.73194">
        <ele>1067.173</ele>
        <time>2018-04-15T06:51:21Z</time>
      </trkpt>
      <trkpt lat="43.88388" lon="7.73198">
        <ele>1067.216</ele>
        <time>2018-04-15T06:51:26Z</time>
      </trkpt>
      <trkpt lat="43.88385" lon="7.73199">
        <ele>1068.108</ele>
        <time>2018-04-15T06:51:46Z</time>
      </trkpt>
      <trkpt lat="43.88383" lon="7.73197">
        <ele>1068.061</ele>
        <time>2018-04-15T06:51:52Z</time>
      </trkpt>
      <trkpt lat="43.88384" lon="7.73193">
        <ele>1067.828</ele>
        <time>2018-04-15T06:52:26Z</time>
      </trkpt>
      <trkpt lat="43.88382" lon="7.7319">
        <ele>1067.748</ele>
        <time>2018-04-15T06:52:45Z</time>
      </trkpt>
      <trkpt lat="43.88382" lon="7.73186">
        <ele>1067.171</ele>
        <time>2018-04-15T06:52:58Z</time>
      </trkpt>
      <trkpt lat="43.88383" lon="7.73183">
        <ele>1067.096</ele>
        <time>2018-04-15T06:53:01Z</time>
      </trkpt>
      <trkpt lat="43.88385" lon="7.73175">
        <ele>1066.784</ele>
        <time>2018-04-15T06:53:07Z</time>
      </trkpt>
      <trkpt lat="43.8839" lon="7.73171">
        <ele>1066.469</ele>
        <time>2018-04-15T06:53:10Z</time>
      </trkpt>
      <trkpt lat="43.88394" lon="7.73169">
        <ele>1066.267</ele>
        <time>2018-04-15T06:53:12Z</time>
      </trkpt>
      <trkpt lat="43.88399" lon="7.73165">
        <ele>1066.02</ele>
        <time>2018-04-15T06:53:16Z</time>
      </trkpt>
      <trkpt lat="43.88403" lon="7.73161">
        <ele>1065.914</ele>
        <time>2018-04-15T06:53:18Z</time>
      </trkpt>
      <trkpt lat="43.88407" lon="7.73159">
        <ele>1065.842</ele>
        <time>2018-04-15T06:53:20Z</time>
      </trkpt>
      <trkpt lat="43.88411" lon="7.73159">
        <ele>1065.672</ele>
        <time>2018-04-15T06:53:22Z</time>
      </trkpt>
      <trkpt lat="43.88414" lon="7.73157">
        <ele>1065.356</ele>
        <time>2018-04-15T06:53:25Z</time>
      </trkpt>
      <trkpt lat="43.88417" lon="7.73156">
        <ele>1065.055</ele>
        <time>2018-04-15T06:53:27Z</time>
      </trkpt>
      <trkpt lat="43.88421" lon="7.73155">
        <ele>1064.703</ele>
        <time>2018-04-15T06:53:29Z</time>
      </trkpt>
      <trkpt lat="43.88425" lon="7.73154">
        <ele>1064.436</ele>
        <time>2018-04-15T06:53:31Z</time>
      </trkpt>
      <trkpt lat="43.88427" lon="7.73152">
        <ele>1064.134</ele>
        <time>2018-04-15T06:53:33Z</time>
      </trkpt>
      <trkpt lat="43.8843" lon="7.73149">
        <ele>1063.699</ele>
        <time>2018-04-15T06:53:36Z</time>
      </trkpt>
      <trkpt lat="43.88433" lon="7.73148">
        <ele>1063.423</ele>
        <time>2018-04-15T06:53:38Z</time>
      </trkpt>
      <trkpt lat="43.88436" lon="7.73146">
        <ele>1062.837</ele>
        <time>2018-04-15T06:53:42Z</time>
      </trkpt>
      <trkpt lat="43.8844" lon="7.73146">
        <ele>1062.52</ele>
        <time>2018-04-15T06:53:44Z</time>
      </trkpt>
      <trkpt lat="43.88443" lon="7.73145">
        <ele>1062.153</ele>
        <time>2018-04-15T06:53:46Z</time>
      </trkpt>
      <trkpt lat="43.88446" lon="7.73142">
        <ele>1060.759</ele>
        <time>2018-04-15T06:53:55Z</time>
      </trkpt>
      <trkpt lat="43.8845" lon="7.73138">
        <ele>1060.119</ele>
        <time>2018-04-15T06:53:58Z</time>
      </trkpt>
      <trkpt lat="43.88453" lon="7.73136">
        <ele>1059.684</ele>
        <time>2018-04-15T06:54:01Z</time>
      </trkpt>
      <trkpt lat="43.88456" lon="7.73135">
        <ele>1059.389</ele>
        <time>2018-04-15T06:54:03Z</time>
      </trkpt>
      <trkpt lat="43.88459" lon="7.73133">
        <ele>1059.034</ele>
        <time>2018-04-15T06:54:05Z</time>
      </trkpt>
      <trkpt lat="43.8846" lon="7.73129">
        <ele>1058.603</ele>
        <time>2018-04-15T06:54:08Z</time>
      </trkpt>
      <trkpt lat="43.88461" lon="7.73125">
        <ele>1058.422</ele>
        <time>2018-04-15T06:54:11Z</time>
      </trkpt>
      <trkpt lat="43.88462" lon="7.7312">
        <ele>1057.984</ele>
        <time>2018-04-15T06:54:15Z</time>
      </trkpt>
      <trkpt lat="43.88464" lon="7.73117">
        <ele>1057.763</ele>
        <time>2018-04-15T06:54:17Z</time>
      </trkpt>
      <trkpt lat="43.88471" lon="7.73109">
        <ele>1057.279</ele>
        <time>2018-04-15T06:54:20Z</time>
      </trkpt>
      <trkpt lat="43.88478" lon="7.73106">
        <ele>1056.584</ele>
        <time>2018-04-15T06:54:23Z</time>
      </trkpt>
      <trkpt lat="43.88482" lon="7.73104">
        <ele>1056.153</ele>
        <time>2018-04-15T06:54:25Z</time>
      </trkpt>
      <trkpt lat="43.88486" lon="7.73104">
        <ele>1055.706</ele>
        <time>2018-04-15T06:54:27Z</time>
      </trkpt>
      <trkpt lat="43.88489" lon="7.73104">
        <ele>1055.123</ele>
        <time>2018-04-15T06:54:29Z</time>
      </trkpt>
      <trkpt lat="43.88494" lon="7.73102">
        <ele>1054.362</ele>
        <time>2018-04-15T06:54:32Z</time>
      </trkpt>
      <trkpt lat="43.88496" lon="7.73099">
        <ele>1053.402</ele>
        <time>2018-04-15T06:54:36Z</time>
      </trkpt>
      <trkpt lat="43.885" lon="7.73097">
        <ele>1053.01</ele>
        <time>2018-04-15T06:54:38Z</time>
      </trkpt>
      <trkpt lat="43.88507" lon="7.73094">
        <ele>1052.329</ele>
        <time>2018-04-15T06:54:41Z</time>
      </trkpt>
      <trkpt lat="43.88508" lon="7.73091">
        <ele>1051.91</ele>
        <time>2018-04-15T06:54:43Z</time>
      </trkpt>
      <trkpt lat="43.88511" lon="7.73089">
        <ele>1051.001</ele>
        <time>2018-04-15T06:54:50Z</time>
      </trkpt>
      <trkpt lat="43.88513" lon="7.73086">
        <ele>1050.655</ele>
        <time>2018-04-15T06:54:54Z</time>
      </trkpt>
      <trkpt lat="43.88513" lon="7.73082">
        <ele>1050.247</ele>
        <time>2018-04-15T06:54:58Z</time>
      </trkpt>
      <trkpt lat="43.88515" lon="7.73079">
        <ele>1049.346</ele>
        <time>2018-04-15T06:55:05Z</time>
      </trkpt>
      <trkpt lat="43.88518" lon="7.73075">
        <ele>1048.772</ele>
        <time>2018-04-15T06:55:09Z</time>
      </trkpt>
      <trkpt lat="43.8852" lon="7.73071">
        <ele>1047.968</ele>
        <time>2018-04-15T06:55:12Z</time>
      </trkpt>
      <trkpt lat="43.88521" lon="7.73065">
        <ele>1047.254</ele>
        <time>2018-04-15T06:55:15Z</time>
      </trkpt>
      <trkpt lat="43.88522" lon="7.7306">
        <ele>1047.104</ele>
        <time>2018-04-15T06:55:16Z</time>
      </trkpt>
      <trkpt lat="43.88522" lon="7.73054">
        <ele>1046.904</ele>
        <time>2018-04-15T06:55:18Z</time>
      </trkpt>
      <trkpt lat="43.88524" lon="7.73048">
        <ele>1046.688</ele>
        <time>2018-04-15T06:55:20Z</time>
      </trkpt>
      <trkpt lat="43.88526" lon="7.73044">
        <ele>1046.228</ele>
        <time>2018-04-15T06:55:23Z</time>
      </trkpt>
      <trkpt lat="43.88528" lon="7.7304">
        <ele>1045.695</ele>
        <time>2018-04-15T06:55:26Z</time>
      </trkpt>
      <trkpt lat="43.88531" lon="7.73036">
        <ele>1045.193</ele>
        <time>2018-04-15T06:55:28Z</time>
      </trkpt>
      <trkpt lat="43.88534" lon="7.73034">
        <ele>1043.921</ele>
        <time>2018-04-15T06:55:32Z</time>
      </trkpt>
      <trkpt lat="43.88535" lon="7.7303">
        <ele>1042.965</ele>
        <time>2018-04-15T06:55:35Z</time>
      </trkpt>
      <trkpt lat="43.88538" lon="7.73027">
        <ele>1042.323</ele>
        <time>2018-04-15T06:55:37Z</time>
      </trkpt>
      <trkpt lat="43.8854" lon="7.73023">
        <ele>1041.716</ele>
        <time>2018-04-15T06:55:39Z</time>
      </trkpt>
      <trkpt lat="43.88543" lon="7.7302">
        <ele>1040.64</ele>
        <time>2018-04-15T06:55:42Z</time>
      </trkpt>
      <trkpt lat="43.88545" lon="7.73016">
        <ele>1039.479</ele>
        <time>2018-04-15T06:55:46Z</time>
      </trkpt>
      <trkpt lat="43.88548" lon="7.73012">
        <ele>1038.962</ele>
        <time>2018-04-15T06:55:48Z</time>
      </trkpt>
      <trkpt lat="43.8855" lon="7.73008">
        <ele>1038.484</ele>
        <time>2018-04-15T06:55:50Z</time>
      </trkpt>
      <trkpt lat="43.88552" lon="7.73005">
        <ele>1037.658</ele>
        <time>2018-04-15T06:55:53Z</time>
      </trkpt>
      <trkpt lat="43.88555" lon="7.73001">
        <ele>1036.928</ele>
        <time>2018-04-15T06:55:56Z</time>
      </trkpt>
      <trkpt lat="43.88558" lon="7.72997">
        <ele>1036.226</ele>
        <time>2018-04-15T06:55:59Z</time>
      </trkpt>
      <trkpt lat="43.8856" lon="7.72992">
        <ele>1035.823</ele>
        <time>2018-04-15T06:56:01Z</time>
      </trkpt>
      <trkpt lat="43.88562" lon="7.72986">
        <ele>1035.458</ele>
        <time>2018-04-15T06:56:03Z</time>
      </trkpt>
      <trkpt lat="43.88562" lon="7.72981">
        <ele>1034.66</ele>
        <time>2018-04-15T06:56:07Z</time>
      </trkpt>
      <trkpt lat="43.88565" lon="7.72977">
        <ele>1033.263</ele>
        <time>2018-04-15T06:56:12Z</time>
      </trkpt>
      <trkpt lat="43.88568" lon="7.72975">
        <ele>1032.778</ele>
        <time>2018-04-15T06:56:14Z</time>
      </trkpt>
      <trkpt lat="43.88571" lon="7.72972">
        <ele>1032.302</ele>
        <time>2018-04-15T06:56:16Z</time>
      </trkpt>
      <trkpt lat="43.88573" lon="7.72969">
        <ele>1031.815</ele>
        <time>2018-04-15T06:56:18Z</time>
      </trkpt>
      <trkpt lat="43.88577" lon="7.72966">
        <ele>1031.394</ele>
        <time>2018-04-15T06:56:20Z</time>
      </trkpt>
      <trkpt lat="43.8858" lon="7.72963">
        <ele>1030.884</ele>
        <time>2018-04-15T06:56:22Z</time>
      </trkpt>
      <trkpt lat="43.88582" lon="7.72959">
        <ele>1030.03</ele>
        <time>2018-04-15T06:56:25Z</time>
      </trkpt>
      <trkpt lat="43.88588" lon="7.72956">
        <ele>1029.031</ele>
        <time>2018-04-15T06:56:28Z</time>
      </trkpt>
      <trkpt lat="43.8859" lon="7.72953">
        <ele>1027.846</ele>
        <time>2018-04-15T06:56:31Z</time>
      </trkpt>
      <trkpt lat="43.88593" lon="7.72951">
        <ele>1025.036</ele>
        <time>2018-04-15T06:56:44Z</time>
      </trkpt>
      <trkpt lat="43.88595" lon="7.72953">
        <ele>1023.91</ele>
        <time>2018-04-15T06:56:55Z</time>
      </trkpt>
      <trkpt lat="43.88598" lon="7.72953">
        <ele>1023.605</ele>
        <time>2018-04-15T06:57:02Z</time>
      </trkpt>
      <trkpt lat="43.88601" lon="7.72952">
        <ele>1022.64</ele>
        <time>2018-04-15T06:57:13Z</time>
      </trkpt>
      <trkpt lat="43.886" lon="7.72956">
        <ele>1022.119</ele>
        <time>2018-04-15T06:57:27Z</time>
      </trkpt>
      <trkpt lat="43.88603" lon="7.72955">
        <ele>1018.553</ele>
        <time>2018-04-15T06:57:59Z</time>
      </trkpt>
      <trkpt lat="43.88606" lon="7.72954">
        <ele>1015.244</ele>
        <time>2018-04-15T06:58:09Z</time>
      </trkpt>
      <trkpt lat="43.88608" lon="7.72953">
        <ele>1013.944</ele>
        <time>2018-04-15T06:58:23Z</time>
      </trkpt>
      <trkpt lat="43.88611" lon="7.7295">
        <ele>1013.41</ele>
        <time>2018-04-15T06:58:26Z</time>
      </trkpt>
      <trkpt lat="43.88612" lon="7.72946">
        <ele>1012.666</ele>
        <time>2018-04-15T06:58:30Z</time>
      </trkpt>
      <trkpt lat="43.88614" lon="7.72943">
        <ele>1011.491</ele>
        <time>2018-04-15T06:58:36Z</time>
      </trkpt>
      <trkpt lat="43.88615" lon="7.72939">
        <ele>1010.703</ele>
        <time>2018-04-15T06:58:39Z</time>
      </trkpt>
      <trkpt lat="43.88618" lon="7.72937">
        <ele>1010.18</ele>
        <time>2018-04-15T06:58:41Z</time>
      </trkpt>
      <trkpt lat="43.8862" lon="7.72934">
        <ele>1008.796</ele>
        <time>2018-04-15T06:58:47Z</time>
      </trkpt>
      <trkpt lat="43.88621" lon="7.7293">
        <ele>1007.698</ele>
        <time>2018-04-15T06:58:50Z</time>
      </trkpt>
      <trkpt lat="43.88624" lon="7.72929">
        <ele>1006.218</ele>
        <time>2018-04-15T06:58:54Z</time>
      </trkpt>
      <trkpt lat="43.88626" lon="7.72927">
        <ele>1004.409</ele>
        <time>2018-04-15T06:59:00Z</time>
      </trkpt>
      <trkpt lat="43.88629" lon="7.72924">
        <ele>1003.453</ele>
        <time>2018-04-15T06:59:04Z</time>
      </trkpt>
      <trkpt lat="43.88631" lon="7.72919">
        <ele>1002.282</ele>
        <time>2018-04-15T06:59:07Z</time>
      </trkpt>
      <trkpt lat="43.88633" lon="7.72916">
        <ele>1001.432</ele>
        <time>2018-04-15T06:59:09Z</time>
      </trkpt>
      <trkpt lat="43.88634" lon="7.72912">
        <ele>1000.58</ele>
        <time>2018-04-15T06:59:11Z</time>
      </trkpt>
      <trkpt lat="43.88638" lon="7.72911">
        <ele>999.675</ele>
        <time>2018-04-15T06:59:13Z</time>
      </trkpt>
      <trkpt lat="43.88641" lon="7.72909">
        <ele>998.569</ele>
        <time>2018-04-15T06:59:16Z</time>
      </trkpt>
      <trkpt lat="43.88642" lon="7.72906">
        <ele>997.958</ele>
        <time>2018-04-15T06:59:18Z</time>
      </trkpt>
      <trkpt lat="43.88644" lon="7.72901">
        <ele>996.614</ele>
        <time>2018-04-15T06:59:22Z</time>
      </trkpt>
      <trkpt lat="43.88645" lon="7.72895">
        <ele>995.935</ele>
        <time>2018-04-15T06:59:24Z</time>
      </trkpt>
      <trkpt lat="43.88645" lon="7.7289">
        <ele>994.931</ele>
        <time>2018-04-15T06:59:27Z</time>
      </trkpt>
      <trkpt lat="43.88646" lon="7.72887">
        <ele>994.047</ele>
        <time>2018-04-15T06:59:30Z</time>
      </trkpt>
      <trkpt lat="43.88649" lon="7.72889">
        <ele>992.744</ele>
        <time>2018-04-15T06:59:35Z</time>
      </trkpt>
      <trkpt lat="43.88652" lon="7.72884">
        <ele>990.209</ele>
        <time>2018-04-15T06:59:44Z</time>
      </trkpt>
      <trkpt lat="43.88653" lon="7.72879">
        <ele>989.792</ele>
        <time>2018-04-15T06:59:46Z</time>
      </trkpt>
      <trkpt lat="43.88654" lon="7.72875">
        <ele>989.466</ele>
        <time>2018-04-15T06:59:48Z</time>
      </trkpt>
      <trkpt lat="43.88656" lon="7.72871">
        <ele>989.105</ele>
        <time>2018-04-15T06:59:50Z</time>
      </trkpt>
      <trkpt lat="43.88659" lon="7.72869">
        <ele>988.732</ele>
        <time>2018-04-15T06:59:52Z</time>
      </trkpt>
      <trkpt lat="43.88662" lon="7.72867">
        <ele>988.301</ele>
        <time>2018-04-15T06:59:54Z</time>
      </trkpt>
      <trkpt lat="43.8866" lon="7.72861">
        <ele>987.852</ele>
        <time>2018-04-15T06:59:57Z</time>
      </trkpt>
      <trkpt lat="43.88662" lon="7.72857">
        <ele>987.37</ele>
        <time>2018-04-15T07:00:01Z</time>
      </trkpt>
      <trkpt lat="43.88663" lon="7.72853">
        <ele>986.743</ele>
        <time>2018-04-15T07:00:06Z</time>
      </trkpt>
      <trkpt lat="43.88661" lon="7.7285">
        <ele>985.713</ele>
        <time>2018-04-15T07:00:12Z</time>
      </trkpt>
      <trkpt lat="43.8866" lon="7.72846">
        <ele>985.238</ele>
        <time>2018-04-15T07:00:15Z</time>
      </trkpt>
      <trkpt lat="43.8866" lon="7.72842">
        <ele>984.587</ele>
        <time>2018-04-15T07:00:19Z</time>
      </trkpt>
      <trkpt lat="43.88661" lon="7.72838">
        <ele>984.239</ele>
        <time>2018-04-15T07:00:26Z</time>
      </trkpt>
      <trkpt lat="43.88664" lon="7.72837">
        <ele>983.289</ele>
        <time>2018-04-15T07:00:37Z</time>
      </trkpt>
      <trkpt lat="43.8866" lon="7.72834">
        <ele>982.12</ele>
        <time>2018-04-15T07:00:44Z</time>
      </trkpt>
      <trkpt lat="43.88664" lon="7.72835">
        <ele>981.137</ele>
        <time>2018-04-15T07:00:54Z</time>
      </trkpt>
      <trkpt lat="43.88667" lon="7.72836">
        <ele>979.11</ele>
        <time>2018-04-15T07:01:04Z</time>
      </trkpt>
      <trkpt lat="43.88667" lon="7.72832">
        <ele>977.137</ele>
        <time>2018-04-15T07:01:17Z</time>
      </trkpt>
      <trkpt lat="43.88666" lon="7.72828">
        <ele>974.445</ele>
        <time>2018-04-15T07:01:25Z</time>
      </trkpt>
      <trkpt lat="43.88665" lon="7.72823">
        <ele>973.353</ele>
        <time>2018-04-15T07:01:28Z</time>
      </trkpt>
      <trkpt lat="43.88664" lon="7.72819">
        <ele>972.8</ele>
        <time>2018-04-15T07:01:30Z</time>
      </trkpt>
      <trkpt lat="43.88664" lon="7.72815">
        <ele>970.808</ele>
        <time>2018-04-15T07:01:40Z</time>
      </trkpt>
      <trkpt lat="43.88664" lon="7.72811">
        <ele>970.199</ele>
        <time>2018-04-15T07:01:44Z</time>
      </trkpt>
      <trkpt lat="43.88664" lon="7.72805">
        <ele>969.925</ele>
        <time>2018-04-15T07:01:46Z</time>
      </trkpt>
      <trkpt lat="43.88664" lon="7.728">
        <ele>969.721</ele>
        <time>2018-04-15T07:01:48Z</time>
      </trkpt>
      <trkpt lat="43.88665" lon="7.72797">
        <ele>969.544</ele>
        <time>2018-04-15T07:01:50Z</time>
      </trkpt>
      <trkpt lat="43.88665" lon="7.72793">
        <ele>969.343</ele>
        <time>2018-04-15T07:01:52Z</time>
      </trkpt>
      <trkpt lat="43.88665" lon="7.72787">
        <ele>968.547</ele>
        <time>2018-04-15T07:01:57Z</time>
      </trkpt>
      <trkpt lat="43.88665" lon="7.72781">
        <ele>968.249</ele>
        <time>2018-04-15T07:02:00Z</time>
      </trkpt>
      <trkpt lat="43.88665" lon="7.72776">
        <ele>968.101</ele>
        <time>2018-04-15T07:02:02Z</time>
      </trkpt>
      <trkpt lat="43.88663" lon="7.72772">
        <ele>967.767</ele>
        <time>2018-04-15T07:02:05Z</time>
      </trkpt>
      <trkpt lat="43.88661" lon="7.72768">
        <ele>967.579</ele>
        <time>2018-04-15T07:02:07Z</time>
      </trkpt>
      <trkpt lat="43.8866" lon="7.72766">
        <ele>966.429</ele>
        <time>2018-04-15T07:02:13Z</time>
      </trkpt>
      <trkpt lat="43.88661" lon="7.72761">
        <ele>966.193</ele>
        <time>2018-04-15T07:02:15Z</time>
      </trkpt>
      <trkpt lat="43.88661" lon="7.72754">
        <ele>965.833</ele>
        <time>2018-04-15T07:02:17Z</time>
      </trkpt>
      <trkpt lat="43.88661" lon="7.7275">
        <ele>965.415</ele>
        <time>2018-04-15T07:02:20Z</time>
      </trkpt>
      <trkpt lat="43.88661" lon="7.72746">
        <ele>964.96</ele>
        <time>2018-04-15T07:02:23Z</time>
      </trkpt>
      <trkpt lat="43.88663" lon="7.7274">
        <ele>964.677</ele>
        <time>2018-04-15T07:02:25Z</time>
      </trkpt>
      <trkpt lat="43.88663" lon="7.72734">
        <ele>964.341</ele>
        <time>2018-04-15T07:02:27Z</time>
      </trkpt>
      <trkpt lat="43.88665" lon="7.7273">
        <ele>963.916</ele>
        <time>2018-04-15T07:02:29Z</time>
      </trkpt>
      <trkpt lat="43.88667" lon="7.72727">
        <ele>962.67</ele>
        <time>2018-04-15T07:02:36Z</time>
      </trkpt>
      <trkpt lat="43.88667" lon="7.72723">
        <ele>961.99</ele>
        <time>2018-04-15T07:02:38Z</time>
      </trkpt>
      <trkpt lat="43.8867" lon="7.7272">
        <ele>960.959</ele>
        <time>2018-04-15T07:02:41Z</time>
      </trkpt>
      <trkpt lat="43.88671" lon="7.72715">
        <ele>959.07</ele>
        <time>2018-04-15T07:02:48Z</time>
      </trkpt>
      <trkpt lat="43.88673" lon="7.72711">
        <ele>958.543</ele>
        <time>2018-04-15T07:02:50Z</time>
      </trkpt>
      <trkpt lat="43.88675" lon="7.72707">
        <ele>958.064</ele>
        <time>2018-04-15T07:02:52Z</time>
      </trkpt>
      <trkpt lat="43.88677" lon="7.72703">
        <ele>957.536</ele>
        <time>2018-04-15T07:02:54Z</time>
      </trkpt>
      <trkpt lat="43.88679" lon="7.72701">
        <ele>957.063</ele>
        <time>2018-04-15T07:02:56Z</time>
      </trkpt>
      <trkpt lat="43.88681" lon="7.72695">
        <ele>956.216</ele>
        <time>2018-04-15T07:02:59Z</time>
      </trkpt>
      <trkpt lat="43.88681" lon="7.7269">
        <ele>955.057</ele>
        <time>2018-04-15T07:03:03Z</time>
      </trkpt>
      <trkpt lat="43.8868" lon="7.72684">
        <ele>954.132</ele>
        <time>2018-04-15T07:03:06Z</time>
      </trkpt>
      <trkpt lat="43.8868" lon="7.7268">
        <ele>952.137</ele>
        <time>2018-04-15T07:03:12Z</time>
      </trkpt>
      <trkpt lat="43.88681" lon="7.72673">
        <ele>949.665</ele>
        <time>2018-04-15T07:03:19Z</time>
      </trkpt>
      <trkpt lat="43.88683" lon="7.72668">
        <ele>949.054</ele>
        <time>2018-04-15T07:03:21Z</time>
      </trkpt>
      <trkpt lat="43.88684" lon="7.72664">
        <ele>948.475</ele>
        <time>2018-04-15T07:03:23Z</time>
      </trkpt>
      <trkpt lat="43.88684" lon="7.7266">
        <ele>947.513</ele>
        <time>2018-04-15T07:03:26Z</time>
      </trkpt>
      <trkpt lat="43.88685" lon="7.72655">
        <ele>946.965</ele>
        <time>2018-04-15T07:03:28Z</time>
      </trkpt>
      <trkpt lat="43.88686" lon="7.72652">
        <ele>946.398</ele>
        <time>2018-04-15T07:03:30Z</time>
      </trkpt>
      <trkpt lat="43.88689" lon="7.72647">
        <ele>945.797</ele>
        <time>2018-04-15T07:03:32Z</time>
      </trkpt>
      <trkpt lat="43.88691" lon="7.72645">
        <ele>945.197</ele>
        <time>2018-04-15T07:03:34Z</time>
      </trkpt>
      <trkpt lat="43.88693" lon="7.72642">
        <ele>944.605</ele>
        <time>2018-04-15T07:03:36Z</time>
      </trkpt>
      <trkpt lat="43.88696" lon="7.7264">
        <ele>944.015</ele>
        <time>2018-04-15T07:03:39Z</time>
      </trkpt>
      <trkpt lat="43.88699" lon="7.72637">
        <ele>943.458</ele>
        <time>2018-04-15T07:03:41Z</time>
      </trkpt>
      <trkpt lat="43.88703" lon="7.72634">
        <ele>942.621</ele>
        <time>2018-04-15T07:03:44Z</time>
      </trkpt>
      <trkpt lat="43.88706" lon="7.72632">
        <ele>942.009</ele>
        <time>2018-04-15T07:03:46Z</time>
      </trkpt>
      <trkpt lat="43.88709" lon="7.7263">
        <ele>941.477</ele>
        <time>2018-04-15T07:03:48Z</time>
      </trkpt>
      <trkpt lat="43.88711" lon="7.72628">
        <ele>940.674</ele>
        <time>2018-04-15T07:03:51Z</time>
      </trkpt>
      <trkpt lat="43.88715" lon="7.72626">
        <ele>938.908</ele>
        <time>2018-04-15T07:03:56Z</time>
      </trkpt>
      <trkpt lat="43.88718" lon="7.7263">
        <ele>937.873</ele>
        <time>2018-04-15T07:03:59Z</time>
      </trkpt>
      <trkpt lat="43.88721" lon="7.72631">
        <ele>936.91</ele>
        <time>2018-04-15T07:04:02Z</time>
      </trkpt>
      <trkpt lat="43.88724" lon="7.72629">
        <ele>934.719</ele>
        <time>2018-04-15T07:04:08Z</time>
      </trkpt>
      <trkpt lat="43.88727" lon="7.72628">
        <ele>934.086</ele>
        <time>2018-04-15T07:04:10Z</time>
      </trkpt>
    </trkseg>
  </trk>
</gpx>